sensor_id;sensor_type;location;lat;lon;timestamp;temperature;humidity
843;DHT22;407;48.884;9.126;2022-09-09T00:01:23;15.70;1.00
843;DHT22;407;48.884;9.126;2022-09-09T00:03:59;15.90;1.00
843;DHT22;407;48.884;9.126;2022-09-09T00:06:31;16.10;99.90
843;DHT22;407;48.884;9.126;2022-09-09T00:09:18;16.20;99.90
843;DHT22;407;48.884;9.126;2022-09-09T00:15:26;16.40;99.90
843;DHT22;407;48.884;9.126;2022-09-09T00:18:05;16.40;1.00
843;DHT22;407;48.884;9.126;2022-09-09T00:20:43;16.50;99.90
843;DHT22;407;48.884;9.126;2022-09-09T00:23:34;16.60;23.90
843;DHT22;407;48.884;9.126;2022-09-09T00:26:14;16.60;1.00
843;DHT22;407;48.884;9.126;2022-09-09T00:31:32;16.70;1.00
843;DHT22;407;48.884;9.126;2022-09-09T00:34:11;16.70;1.00
843;DHT22;407;48.884;9.126;2022-09-09T00:36:38;16.60;1.00
843;DHT22;407;48.884;9.126;2022-09-09T00:39:05;16.60;1.00
843;DHT22;407;48.884;9.126;2022-09-09T00:44:37;16.60;1.00
843;DHT22;407;48.884;9.126;2022-09-09T00:50:17;16.50;99.90
843;DHT22;407;48.884;9.126;2022-09-09T00:53:02;16.50;99.90
843;DHT22;407;48.884;9.126;2022-09-09T00:58:07;16.50;99.90
843;DHT22;407;48.884;9.126;2022-09-09T01:00:41;16.60;99.90
843;DHT22;407;48.884;9.126;2022-09-09T01:03:25;15.40;99.90
843;DHT22;407;48.884;9.126;2022-09-09T01:06:22;16.60;99.90
843;DHT22;407;48.884;9.126;2022-09-09T01:12:16;16.70;99.90
843;DHT22;407;48.884;9.126;2022-09-09T01:14:48;16.70;99.90
843;DHT22;407;48.884;9.126;2022-09-09T01:19:50;16.70;99.90
843;DHT22;407;48.884;9.126;2022-09-09T01:25:21;16.80;1.00
843;DHT22;407;48.884;9.126;2022-09-09T01:27:49;16.80;1.00
843;DHT22;407;48.884;9.126;2022-09-09T01:30:17;16.70;1.00
843;DHT22;407;48.884;9.126;2022-09-09T01:32:53;16.80;11.20
843;DHT22;407;48.884;9.126;2022-09-09T01:36:06;16.70;1.00
843;DHT22;407;48.884;9.126;2022-09-09T01:38:24;16.80;1.00
843;DHT22;407;48.884;9.126;2022-09-09T01:40:51;16.80;99.90
843;DHT22;407;48.884;9.126;2022-09-09T01:43:20;16.80;99.90
843;DHT22;407;48.884;9.126;2022-09-09T01:45:46;16.70;99.90
843;DHT22;407;48.884;9.126;2022-09-09T01:48:13;16.80;99.90
843;DHT22;407;48.884;9.126;2022-09-09T01:50:38;16.90;1.00
843;DHT22;407;48.884;9.126;2022-09-09T01:53:04;16.90;1.00
843;DHT22;407;48.884;9.126;2022-09-09T01:55:38;16.90;1.00
843;DHT22;407;48.884;9.126;2022-09-09T01:58:27;16.90;99.90
843;DHT22;407;48.884;9.126;2022-09-09T02:01:06;17.00;99.90
843;DHT22;407;48.884;9.126;2022-09-09T02:03:33;17.00;1.00
843;DHT22;407;48.884;9.126;2022-09-09T02:06:25;17.00;1.00
843;DHT22;407;48.884;9.126;2022-09-09T02:08:57;16.80;1.00
843;DHT22;407;48.884;9.126;2022-09-09T02:11:28;16.80;99.90
843;DHT22;407;48.884;9.126;2022-09-09T02:14:01;16.70;1.00
843;DHT22;407;48.884;9.126;2022-09-09T02:16:35;16.60;1.00
843;DHT22;407;48.884;9.126;2022-09-09T02:19:11;16.60;99.90
843;DHT22;407;48.884;9.126;2022-09-09T02:21:40;16.50;29.10
843;DHT22;407;48.884;9.126;2022-09-09T02:24:08;16.40;99.90
843;DHT22;407;48.884;9.126;2022-09-09T02:26:39;16.40;99.90
843;DHT22;407;48.884;9.126;2022-09-09T02:29:10;16.30;99.90
843;DHT22;407;48.884;9.126;2022-09-09T02:31:37;16.40;99.90
843;DHT22;407;48.884;9.126;2022-09-09T02:34:05;16.20;99.90
843;DHT22;407;48.884;9.126;2022-09-09T02:36:34;16.10;99.90
843;DHT22;407;48.884;9.126;2022-09-09T02:39:00;16.00;99.90
843;DHT22;407;48.884;9.126;2022-09-09T02:41:31;16.00;99.90
843;DHT22;407;48.884;9.126;2022-09-09T02:43:57;16.00;1.00
843;DHT22;407;48.884;9.126;2022-09-09T02:49:18;15.90;99.90
843;DHT22;407;48.884;9.126;2022-09-09T02:54:33;16.00;99.90
843;DHT22;407;48.884;9.126;2022-09-09T02:57:23;16.00;99.90
843;DHT22;407;48.884;9.126;2022-09-09T02:59:50;15.90;99.90
843;DHT22;407;48.884;9.126;2022-09-09T03:02:18;15.90;99.90
843;DHT22;407;48.884;9.126;2022-09-09T03:04:44;15.90;99.90
843;DHT22;407;48.884;9.126;2022-09-09T03:07:11;15.90;99.90
843;DHT22;407;48.884;9.126;2022-09-09T03:09:37;15.80;1.00
843;DHT22;407;48.884;9.126;2022-09-09T03:12:03;15.80;1.00
843;DHT22;407;48.884;9.126;2022-09-09T03:14:29;15.70;1.00
843;DHT22;407;48.884;9.126;2022-09-09T03:16:56;15.70;1.00
843;DHT22;407;48.884;9.126;2022-09-09T03:19:23;15.60;1.00
843;DHT22;407;48.884;9.126;2022-09-09T03:21:49;15.50;1.00
843;DHT22;407;48.884;9.126;2022-09-09T03:24:15;15.50;1.00
843;DHT22;407;48.884;9.126;2022-09-09T03:26:42;15.50;1.00
843;DHT22;407;48.884;9.126;2022-09-09T03:29:11;15.50;1.00
843;DHT22;407;48.884;9.126;2022-09-09T03:31:38;15.40;1.00
843;DHT22;407;48.884;9.126;2022-09-09T03:34:04;15.30;1.00
843;DHT22;407;48.884;9.126;2022-09-09T03:36:30;15.20;1.00
843;DHT22;407;48.884;9.126;2022-09-09T03:38:56;15.10;1.00
843;DHT22;407;48.884;9.126;2022-09-09T03:41:22;15.10;1.00
843;DHT22;407;48.884;9.126;2022-09-09T03:43:52;15.00;1.00
843;DHT22;407;48.884;9.126;2022-09-09T03:46:19;15.10;1.00
843;DHT22;407;48.884;9.126;2022-09-09T03:48:45;15.10;1.00
843;DHT22;407;48.884;9.126;2022-09-09T03:51:10;15.20;1.00
843;DHT22;407;48.884;9.126;2022-09-09T03:53:36;15.30;1.00
843;DHT22;407;48.884;9.126;2022-09-09T03:56:04;15.30;1.00
843;DHT22;407;48.884;9.126;2022-09-09T03:58:35;15.50;1.00
843;DHT22;407;48.884;9.126;2022-09-09T04:01:10;15.60;1.00
843;DHT22;407;48.884;9.126;2022-09-09T04:03:38;15.70;1.00
843;DHT22;407;48.884;9.126;2022-09-09T04:06:06;15.80;1.00
843;DHT22;407;48.884;9.126;2022-09-09T04:08:33;15.90;1.00
843;DHT22;407;48.884;9.126;2022-09-09T04:11:00;16.00;99.90
843;DHT22;407;48.884;9.126;2022-09-09T04:13:27;16.00;99.90
843;DHT22;407;48.884;9.126;2022-09-09T04:15:57;16.10;99.90
843;DHT22;407;48.884;9.126;2022-09-09T04:18:23;16.20;99.90
843;DHT22;407;48.884;9.126;2022-09-09T04:20:50;16.20;99.90
843;DHT22;407;48.884;9.126;2022-09-09T04:23:16;16.10;99.90
843;DHT22;407;48.884;9.126;2022-09-09T04:25:48;16.20;99.90
843;DHT22;407;48.884;9.126;2022-09-09T04:28:15;16.20;99.90
843;DHT22;407;48.884;9.126;2022-09-09T04:30:42;16.30;99.90
843;DHT22;407;48.884;9.126;2022-09-09T04:33:09;16.30;99.90
843;DHT22;407;48.884;9.126;2022-09-09T04:35:36;16.30;99.90
843;DHT22;407;48.884;9.126;2022-09-09T04:38:02;16.40;99.90
843;DHT22;407;48.884;9.126;2022-09-09T04:40:31;16.40;99.90
843;DHT22;407;48.884;9.126;2022-09-09T04:43:01;16.40;99.90
843;DHT22;407;48.884;9.126;2022-09-09T04:45:27;16.40;85.20
843;DHT22;407;48.884;9.126;2022-09-09T04:47:56;16.50;1.70
843;DHT22;407;48.884;9.126;2022-09-09T04:50:22;16.50;13.60
843;DHT22;407;48.884;9.126;2022-09-09T04:52:55;16.40;1.00
843;DHT22;407;48.884;9.126;2022-09-09T04:55:23;16.40;1.00
843;DHT22;407;48.884;9.126;2022-09-09T04:57:54;16.40;40.20
843;DHT22;407;48.884;9.126;2022-09-09T05:00:20;16.40;78.00
843;DHT22;407;48.884;9.126;2022-09-09T05:02:46;16.50;95.80
843;DHT22;407;48.884;9.126;2022-09-09T05:05:12;16.60;54.10
843;DHT22;407;48.884;9.126;2022-09-09T05:07:38;16.60;99.90
843;DHT22;407;48.884;9.126;2022-09-09T05:10:04;16.50;73.70
843;DHT22;407;48.884;9.126;2022-09-09T05:12:30;16.50;4.80
843;DHT22;407;48.884;9.126;2022-09-09T05:14:56;16.50;31.30
843;DHT22;407;48.884;9.126;2022-09-09T05:17:23;16.50;59.50
843;DHT22;407;48.884;9.126;2022-09-09T05:19:48;16.50;99.90
843;DHT22;407;48.884;9.126;2022-09-09T05:22:21;16.60;99.90
843;DHT22;407;48.884;9.126;2022-09-09T05:24:48;16.60;1.00
843;DHT22;407;48.884;9.126;2022-09-09T05:27:17;16.60;1.00
843;DHT22;407;48.884;9.126;2022-09-09T05:29:43;16.70;1.00
843;DHT22;407;48.884;9.126;2022-09-09T05:32:10;16.90;1.00
843;DHT22;407;48.884;9.126;2022-09-09T05:34:35;16.80;1.00
843;DHT22;407;48.884;9.126;2022-09-09T05:37:03;16.80;1.00
843;DHT22;407;48.884;9.126;2022-09-09T05:39:29;16.90;99.90
843;DHT22;407;48.884;9.126;2022-09-09T05:41:55;17.00;99.90
843;DHT22;407;48.884;9.126;2022-09-09T05:44:21;17.10;99.80
843;DHT22;407;48.884;9.126;2022-09-09T05:46:48;17.10;1.00
843;DHT22;407;48.884;9.126;2022-09-09T05:49:14;17.10;1.00
843;DHT22;407;48.884;9.126;2022-09-09T05:51:41;17.00;1.00
843;DHT22;407;48.884;9.126;2022-09-09T05:54:08;16.90;99.90
843;DHT22;407;48.884;9.126;2022-09-09T05:56:34;17.00;99.90
843;DHT22;407;48.884;9.126;2022-09-09T05:59:00;17.00;1.00
843;DHT22;407;48.884;9.126;2022-09-09T06:01:31;17.10;1.00
843;DHT22;407;48.884;9.126;2022-09-09T06:03:57;17.30;99.90
843;DHT22;407;48.884;9.126;2022-09-09T06:06:25;17.70;99.90
843;DHT22;407;48.884;9.126;2022-09-09T06:08:53;18.30;99.90
843;DHT22;407;48.884;9.126;2022-09-09T06:11:21;18.60;1.00
843;DHT22;407;48.884;9.126;2022-09-09T06:13:48;18.50;1.00
843;DHT22;407;48.884;9.126;2022-09-09T06:16:17;18.30;1.00
843;DHT22;407;48.884;9.126;2022-09-09T06:18:43;18.20;99.90
843;DHT22;407;48.884;9.126;2022-09-09T06:21:15;18.20;99.90
843;DHT22;407;48.884;9.126;2022-09-09T06:23:41;18.10;99.90
843;DHT22;407;48.884;9.126;2022-09-09T06:26:13;18.00;1.00
843;DHT22;407;48.884;9.126;2022-09-09T06:28:39;18.00;1.00
843;DHT22;407;48.884;9.126;2022-09-09T06:31:07;17.90;35.20
843;DHT22;407;48.884;9.126;2022-09-09T06:33:38;18.00;1.00
843;DHT22;407;48.884;9.126;2022-09-09T06:36:11;18.00;1.00
843;DHT22;407;48.884;9.126;2022-09-09T06:38:37;18.00;99.90
843;DHT22;407;48.884;9.126;2022-09-09T06:41:04;18.00;1.00
843;DHT22;407;48.884;9.126;2022-09-09T06:43:31;18.00;1.00
843;DHT22;407;48.884;9.126;2022-09-09T06:45:59;18.10;1.00
843;DHT22;407;48.884;9.126;2022-09-09T06:48:27;18.00;1.00
843;DHT22;407;48.884;9.126;2022-09-09T06:51:14;18.20;99.90
843;DHT22;407;48.884;9.126;2022-09-09T06:53:42;18.50;99.90
843;DHT22;407;48.884;9.126;2022-09-09T06:58:40;18.80;1.00
843;DHT22;407;48.884;9.126;2022-09-09T07:01:11;18.80;1.00
843;DHT22;407;48.884;9.126;2022-09-09T07:03:38;18.90;99.90
843;DHT22;407;48.884;9.126;2022-09-09T07:06:04;19.00;1.00
843;DHT22;407;48.884;9.126;2022-09-09T07:08:30;19.10;99.90
843;DHT22;407;48.884;9.126;2022-09-09T07:11:05;19.20;99.90
843;DHT22;407;48.884;9.126;2022-09-09T07:13:31;19.20;99.90
843;DHT22;407;48.884;9.126;2022-09-09T07:16:09;19.20;99.90
843;DHT22;407;48.884;9.126;2022-09-09T07:18:35;19.30;99.90
843;DHT22;407;48.884;9.126;2022-09-09T07:21:02;19.40;1.00
843;DHT22;407;48.884;9.126;2022-09-09T07:23:29;19.80;1.00
843;DHT22;407;48.884;9.126;2022-09-09T07:25:56;20.00;1.00
843;DHT22;407;48.884;9.126;2022-09-09T07:28:22;20.20;1.00
843;DHT22;407;48.884;9.126;2022-09-09T07:31:00;20.50;99.90
843;DHT22;407;48.884;9.126;2022-09-09T07:33:30;21.10;99.90
843;DHT22;407;48.884;9.126;2022-09-09T07:36:09;21.10;99.90
843;DHT22;407;48.884;9.126;2022-09-09T07:38:43;21.00;99.90
843;DHT22;407;48.884;9.126;2022-09-09T07:41:13;20.90;99.90
843;DHT22;407;48.884;9.126;2022-09-09T07:43:45;21.00;39.80
843;DHT22;407;48.884;9.126;2022-09-09T07:46:12;21.10;47.20
843;DHT22;407;48.884;9.126;2022-09-09T07:48:43;21.30;11.20
843;DHT22;407;48.884;9.126;2022-09-09T07:51:14;21.60;1.00
843;DHT22;407;48.884;9.126;2022-09-09T07:53:42;21.70;1.00
843;DHT22;407;48.884;9.126;2022-09-09T07:56:10;21.70;1.00
843;DHT22;407;48.884;9.126;2022-09-09T08:18:53;29.70;99.90
843;DHT22;407;48.884;9.126;2022-09-09T08:21:27;29.60;44.00
843;DHT22;407;48.884;9.126;2022-09-09T08:23:55;29.90;5.30
843;DHT22;407;48.884;9.126;2022-09-09T08:26:23;30.40;2.00
843;DHT22;407;48.884;9.126;2022-09-09T08:28:50;29.70;1.00
843;DHT22;407;48.884;9.126;2022-09-09T09:05:09;30.80;50.50
843;DHT22;407;48.884;9.126;2022-09-09T09:09:45;31.30;9.10
843;DHT22;407;48.884;9.126;2022-09-09T09:14:49;30.70;99.90
843;DHT22;407;48.884;9.126;2022-09-09T09:17:18;29.40;99.90
843;DHT22;407;48.884;9.126;2022-09-09T09:19:46;27.00;99.90
843;DHT22;407;48.884;9.126;2022-09-09T09:29:49;27.50;1.00
843;DHT22;407;48.884;9.126;2022-09-09T09:32:18;28.80;1.00
843;DHT22;407;48.884;9.126;2022-09-09T09:34:55;29.80;1.00
843;DHT22;407;48.884;9.126;2022-09-09T09:37:31;30.20;1.00
843;DHT22;407;48.884;9.126;2022-09-09T09:40:12;30.00;1.00
843;DHT22;407;48.884;9.126;2022-09-09T09:48:19;29.90;1.00
843;DHT22;407;48.884;9.126;2022-09-09T09:51:08;29.50;1.00
843;DHT22;407;48.884;9.126;2022-09-09T09:53:36;30.30;1.00
843;DHT22;407;48.884;9.126;2022-09-09T09:56:06;29.50;1.00
843;DHT22;407;48.884;9.126;2022-09-09T10:01:02;29.90;1.00
843;DHT22;407;48.884;9.126;2022-09-09T10:05:56;28.90;99.90
843;DHT22;407;48.884;9.126;2022-09-09T10:08:26;28.70;99.90
843;DHT22;407;48.884;9.126;2022-09-09T10:16:49;29.10;99.90
843;DHT22;407;48.884;9.126;2022-09-09T10:19:33;29.00;99.90
843;DHT22;407;48.884;9.126;2022-09-09T10:22:15;29.40;99.90
843;DHT22;407;48.884;9.126;2022-09-09T10:25:04;28.60;99.90
843;DHT22;407;48.884;9.126;2022-09-09T10:33:33;29.10;99.90
843;DHT22;407;48.884;9.126;2022-09-09T10:36:13;28.80;99.90
843;DHT22;407;48.884;9.126;2022-09-09T10:38:45;28.70;99.90
843;DHT22;407;48.884;9.126;2022-09-09T10:52:07;25.80;99.90
843;DHT22;407;48.884;9.126;2022-09-09T10:55:09;25.20;99.90
843;DHT22;407;48.884;9.126;2022-09-09T10:57:48;24.90;99.90
843;DHT22;407;48.884;9.126;2022-09-09T11:00:23;24.50;99.90
843;DHT22;407;48.884;9.126;2022-09-09T11:02:56;24.00;99.90
843;DHT22;407;48.884;9.126;2022-09-09T11:05:29;23.60;99.90
843;DHT22;407;48.884;9.126;2022-09-09T11:08:03;23.30;99.90
843;DHT22;407;48.884;9.126;2022-09-09T11:10:58;23.30;99.90
843;DHT22;407;48.884;9.126;2022-09-09T11:13:35;23.00;99.90
843;DHT22;407;48.884;9.126;2022-09-09T11:16:15;22.80;99.90
843;DHT22;407;48.884;9.126;2022-09-09T11:18:42;22.10;99.90
843;DHT22;407;48.884;9.126;2022-09-09T11:21:35;21.90;99.90
843;DHT22;407;48.884;9.126;2022-09-09T11:24:06;21.40;99.90
843;DHT22;407;48.884;9.126;2022-09-09T11:26:42;21.40;99.90
843;DHT22;407;48.884;9.126;2022-09-09T11:40:59;20.30;1.00
843;DHT22;407;48.884;9.126;2022-09-09T11:43:31;19.90;99.90
843;DHT22;407;48.884;9.126;2022-09-09T11:46:01;19.90;99.90
843;DHT22;407;48.884;9.126;2022-09-09T11:48:42;19.90;99.90
843;DHT22;407;48.884;9.126;2022-09-09T11:51:13;20.10;99.90
843;DHT22;407;48.884;9.126;2022-09-09T11:53:50;20.20;99.90
843;DHT22;407;48.884;9.126;2022-09-09T11:56:41;20.30;99.90
843;DHT22;407;48.884;9.126;2022-09-09T11:59:26;20.30;99.90
843;DHT22;407;48.884;9.126;2022-09-09T12:07:40;21.20;99.90
843;DHT22;407;48.884;9.126;2022-09-09T12:12:38;21.90;99.90
843;DHT22;407;48.884;9.126;2022-09-09T12:17:41;22.20;99.90
843;DHT22;407;48.884;9.126;2022-09-09T12:23:16;22.40;99.90
843;DHT22;407;48.884;9.126;2022-09-09T12:31:05;23.10;99.90
843;DHT22;407;48.884;9.126;2022-09-09T12:33:39;22.60;99.90
843;DHT22;407;48.884;9.126;2022-09-09T12:36:14;22.80;99.90
843;DHT22;407;48.884;9.126;2022-09-09T12:38:42;23.20;99.90
843;DHT22;407;48.884;9.126;2022-09-09T12:41:28;23.50;99.90
843;DHT22;407;48.884;9.126;2022-09-09T12:44:08;23.50;99.90
843;DHT22;407;48.884;9.126;2022-09-09T12:46:43;23.50;99.90
843;DHT22;407;48.884;9.126;2022-09-09T12:49:39;23.60;99.90
843;DHT22;407;48.884;9.126;2022-09-09T12:52:13;23.40;99.90
843;DHT22;407;48.884;9.126;2022-09-09T12:54:44;23.30;99.90
843;DHT22;407;48.884;9.126;2022-09-09T12:57:12;23.50;99.90
843;DHT22;407;48.884;9.126;2022-09-09T12:59:41;23.30;99.90
843;DHT22;407;48.884;9.126;2022-09-09T13:02:21;23.30;99.90
843;DHT22;407;48.884;9.126;2022-09-09T13:04:47;23.00;99.90
843;DHT22;407;48.884;9.126;2022-09-09T13:07:13;23.40;99.90
843;DHT22;407;48.884;9.126;2022-09-09T13:09:42;23.30;99.90
843;DHT22;407;48.884;9.126;2022-09-09T13:12:14;23.20;99.90
843;DHT22;407;48.884;9.126;2022-09-09T13:14:44;23.10;99.90
843;DHT22;407;48.884;9.126;2022-09-09T13:17:24;23.30;99.90
843;DHT22;407;48.884;9.126;2022-09-09T13:19:51;24.00;99.90
843;DHT22;407;48.884;9.126;2022-09-09T13:22:31;24.20;99.90
843;DHT22;407;48.884;9.126;2022-09-09T13:27:38;24.50;99.90
843;DHT22;407;48.884;9.126;2022-09-09T13:30:30;24.20;99.90
843;DHT22;407;48.884;9.126;2022-09-09T13:33:17;24.30;99.90
843;DHT22;407;48.884;9.126;2022-09-09T13:35:50;24.40;99.90
843;DHT22;407;48.884;9.126;2022-09-09T13:38:18;24.00;99.90
843;DHT22;407;48.884;9.126;2022-09-09T13:41:18;24.00;99.90
843;DHT22;407;48.884;9.126;2022-09-09T13:43:46;23.90;99.90
843;DHT22;407;48.884;9.126;2022-09-09T13:48:58;23.90;99.90
843;DHT22;407;48.884;9.126;2022-09-09T13:51:40;23.90;99.90
843;DHT22;407;48.884;9.126;2022-09-09T13:54:09;24.10;99.90
843;DHT22;407;48.884;9.126;2022-09-09T13:56:37;24.10;99.90
843;DHT22;407;48.884;9.126;2022-09-09T13:59:04;23.90;99.90
843;DHT22;407;48.884;9.126;2022-09-09T14:01:30;23.80;99.90
843;DHT22;407;48.884;9.126;2022-09-09T14:03:56;24.10;99.90
843;DHT22;407;48.884;9.126;2022-09-09T14:06:22;24.00;99.90
843;DHT22;407;48.884;9.126;2022-09-09T14:08:51;23.90;99.90
843;DHT22;407;48.884;9.126;2022-09-09T14:11:18;23.80;99.90
843;DHT22;407;48.884;9.126;2022-09-09T14:13:44;23.40;99.90
843;DHT22;407;48.884;9.126;2022-09-09T14:16:10;23.40;99.90
843;DHT22;407;48.884;9.126;2022-09-09T14:18:36;23.40;99.90
843;DHT22;407;48.884;9.126;2022-09-09T14:21:03;23.50;99.90
843;DHT22;407;48.884;9.126;2022-09-09T14:23:28;23.70;99.90
843;DHT22;407;48.884;9.126;2022-09-09T14:25:55;24.10;99.90
843;DHT22;407;48.884;9.126;2022-09-09T14:28:21;24.30;99.90
843;DHT22;407;48.884;9.126;2022-09-09T14:30:47;24.50;99.90
843;DHT22;407;48.884;9.126;2022-09-09T14:33:14;24.60;99.90
843;DHT22;407;48.884;9.126;2022-09-09T14:35:41;24.20;99.90
843;DHT22;407;48.884;9.126;2022-09-09T14:38:07;24.00;99.90
843;DHT22;407;48.884;9.126;2022-09-09T14:40:35;23.70;99.90
843;DHT22;407;48.884;9.126;2022-09-09T14:43:01;23.50;99.90
843;DHT22;407;48.884;9.126;2022-09-09T14:45:27;23.40;99.90
843;DHT22;407;48.884;9.126;2022-09-09T14:47:53;23.40;99.90
843;DHT22;407;48.884;9.126;2022-09-09T14:50:19;23.40;99.90
843;DHT22;407;48.884;9.126;2022-09-09T14:52:45;23.50;99.90
843;DHT22;407;48.884;9.126;2022-09-09T14:55:12;23.60;99.90
843;DHT22;407;48.884;9.126;2022-09-09T14:57:38;23.20;99.90
843;DHT22;407;48.884;9.126;2022-09-09T15:00:07;23.20;99.90
843;DHT22;407;48.884;9.126;2022-09-09T15:02:33;23.10;99.90
843;DHT22;407;48.884;9.126;2022-09-09T15:04:59;22.90;99.90
843;DHT22;407;48.884;9.126;2022-09-09T15:07:25;22.70;99.90
843;DHT22;407;48.884;9.126;2022-09-09T15:09:52;22.80;99.90
843;DHT22;407;48.884;9.126;2022-09-09T15:12:18;22.70;99.90
843;DHT22;407;48.884;9.126;2022-09-09T15:14:45;22.80;99.90
843;DHT22;407;48.884;9.126;2022-09-09T15:17:11;22.90;99.90
843;DHT22;407;48.884;9.126;2022-09-09T15:19:37;22.80;99.90
843;DHT22;407;48.884;9.126;2022-09-09T15:22:06;22.70;99.90
843;DHT22;407;48.884;9.126;2022-09-09T15:24:33;22.30;99.90
843;DHT22;407;48.884;9.126;2022-09-09T15:26:59;22.30;99.90
843;DHT22;407;48.884;9.126;2022-09-09T15:29:25;22.40;99.90
843;DHT22;407;48.884;9.126;2022-09-09T15:31:51;22.50;99.90
843;DHT22;407;48.884;9.126;2022-09-09T15:34:18;22.70;99.90
843;DHT22;407;48.884;9.126;2022-09-09T15:36:45;23.00;99.90
843;DHT22;407;48.884;9.126;2022-09-09T15:39:15;23.10;99.90
843;DHT22;407;48.884;9.126;2022-09-09T15:41:46;23.10;99.90
843;DHT22;407;48.884;9.126;2022-09-09T15:44:12;23.00;99.90
843;DHT22;407;48.884;9.126;2022-09-09T15:46:43;23.00;99.90
843;DHT22;407;48.884;9.126;2022-09-09T15:49:16;22.80;99.90
843;DHT22;407;48.884;9.126;2022-09-09T15:51:47;22.80;99.90
843;DHT22;407;48.884;9.126;2022-09-09T15:54:15;22.60;99.90
843;DHT22;407;48.884;9.126;2022-09-09T15:56:46;22.50;99.90
843;DHT22;407;48.884;9.126;2022-09-09T15:59:14;22.40;99.90
843;DHT22;407;48.884;9.126;2022-09-09T16:01:40;22.40;99.90
843;DHT22;407;48.884;9.126;2022-09-09T16:04:07;22.30;99.90
843;DHT22;407;48.884;9.126;2022-09-09T16:06:33;22.10;99.90
843;DHT22;407;48.884;9.126;2022-09-09T16:08:59;22.00;99.90
843;DHT22;407;48.884;9.126;2022-09-09T16:11:36;21.90;99.90
843;DHT22;407;48.884;9.126;2022-09-09T16:14:03;22.00;99.90
843;DHT22;407;48.884;9.126;2022-09-09T16:16:29;22.00;99.90
843;DHT22;407;48.884;9.126;2022-09-09T16:19:00;21.90;99.90
843;DHT22;407;48.884;9.126;2022-09-09T16:21:33;21.30;99.90
843;DHT22;407;48.884;9.126;2022-09-09T16:24:01;20.40;99.90
843;DHT22;407;48.884;9.126;2022-09-09T16:26:29;19.90;99.90
843;DHT22;407;48.884;9.126;2022-09-09T16:28:55;19.40;99.90
843;DHT22;407;48.884;9.126;2022-09-09T16:31:22;18.90;99.90
843;DHT22;407;48.884;9.126;2022-09-09T16:33:49;18.50;99.90
843;DHT22;407;48.884;9.126;2022-09-09T16:36:17;18.30;99.90
843;DHT22;407;48.884;9.126;2022-09-09T16:38:46;18.20;99.90
843;DHT22;407;48.884;9.126;2022-09-09T16:41:13;18.10;99.90
843;DHT22;407;48.884;9.126;2022-09-09T16:43:40;18.00;1.00
843;DHT22;407;48.884;9.126;2022-09-09T16:46:17;18.00;1.00
843;DHT22;407;48.884;9.126;2022-09-09T16:48:44;18.10;1.00
843;DHT22;407;48.884;9.126;2022-09-09T16:51:18;18.20;99.90
843;DHT22;407;48.884;9.126;2022-09-09T16:53:44;18.00;99.90
843;DHT22;407;48.884;9.126;2022-09-09T16:56:15;17.90;99.90
843;DHT22;407;48.884;9.126;2022-09-09T16:58:42;17.90;21.00
843;DHT22;407;48.884;9.126;2022-09-09T17:01:11;17.90;1.00
843;DHT22;407;48.884;9.126;2022-09-09T17:03:40;17.90;1.00
843;DHT22;407;48.884;9.126;2022-09-09T17:06:13;18.00;1.00
843;DHT22;407;48.884;9.126;2022-09-09T17:08:39;18.00;99.90
843;DHT22;407;48.884;9.126;2022-09-09T17:11:17;18.00;99.90
843;DHT22;407;48.884;9.126;2022-09-09T17:13:44;18.00;99.90
843;DHT22;407;48.884;9.126;2022-09-09T17:16:11;17.90;1.00
843;DHT22;407;48.884;9.126;2022-09-09T17:18:38;17.80;1.00
843;DHT22;407;48.884;9.126;2022-09-09T17:21:05;17.70;1.00
843;DHT22;407;48.884;9.126;2022-09-09T17:23:32;17.50;1.00
843;DHT22;407;48.884;9.126;2022-09-09T17:25:59;17.50;99.90
843;DHT22;407;48.884;9.126;2022-09-09T17:28:25;17.40;99.90
843;DHT22;407;48.884;9.126;2022-09-09T17:30:59;17.40;1.00
843;DHT22;407;48.884;9.126;2022-09-09T17:33:30;16.60;1.00
843;DHT22;407;48.884;9.126;2022-09-09T17:36:01;17.40;99.90
843;DHT22;407;48.884;9.126;2022-09-09T17:38:28;17.40;99.90
843;DHT22;407;48.884;9.126;2022-09-09T17:41:12;16.70;99.90
843;DHT22;407;48.884;9.126;2022-09-09T17:43:39;17.30;1.00
843;DHT22;407;48.884;9.126;2022-09-09T17:46:11;17.20;1.00
843;DHT22;407;48.884;9.126;2022-09-09T17:48:37;17.10;99.90
843;DHT22;407;48.884;9.126;2022-09-09T17:51:04;17.10;99.90
843;DHT22;407;48.884;9.126;2022-09-09T17:53:35;17.10;99.90
843;DHT22;407;48.884;9.126;2022-09-09T17:56:06;17.10;1.00
843;DHT22;407;48.884;9.126;2022-09-09T17:58:32;17.10;1.00
843;DHT22;407;48.884;9.126;2022-09-09T18:01:05;17.00;1.00
843;DHT22;407;48.884;9.126;2022-09-09T18:03:34;17.00;1.00
843;DHT22;407;48.884;9.126;2022-09-09T18:06:04;16.80;1.00
843;DHT22;407;48.884;9.126;2022-09-09T18:08:31;16.90;1.00
843;DHT22;407;48.884;9.126;2022-09-09T18:10:57;17.00;99.90
843;DHT22;407;48.884;9.126;2022-09-09T18:13:23;17.10;99.90
843;DHT22;407;48.884;9.126;2022-09-09T18:15:49;17.20;41.30
843;DHT22;407;48.884;9.126;2022-09-09T18:18:14;17.20;1.00
843;DHT22;407;48.884;9.126;2022-09-09T18:20:41;17.20;99.90
843;DHT22;407;48.884;9.126;2022-09-09T18:23:07;17.20;99.90
843;DHT22;407;48.884;9.126;2022-09-09T18:25:39;17.30;1.00
843;DHT22;407;48.884;9.126;2022-09-09T18:28:05;17.40;99.90
843;DHT22;407;48.884;9.126;2022-09-09T18:30:32;17.40;1.00
843;DHT22;407;48.884;9.126;2022-09-09T18:32:57;17.40;99.90
843;DHT22;407;48.884;9.126;2022-09-09T18:35:23;17.30;1.00
843;DHT22;407;48.884;9.126;2022-09-09T18:37:48;17.40;99.90
843;DHT22;407;48.884;9.126;2022-09-09T18:40:15;17.60;1.00
843;DHT22;407;48.884;9.126;2022-09-09T18:42:40;17.40;99.90
843;DHT22;407;48.884;9.126;2022-09-09T18:45:06;17.40;1.00
843;DHT22;407;48.884;9.126;2022-09-09T18:47:32;17.40;99.90
843;DHT22;407;48.884;9.126;2022-09-09T18:49:58;17.40;1.00
843;DHT22;407;48.884;9.126;2022-09-09T18:52:24;17.30;99.90
843;DHT22;407;48.884;9.126;2022-09-09T18:54:50;17.20;1.00
843;DHT22;407;48.884;9.126;2022-09-09T18:57:16;17.20;1.00
843;DHT22;407;48.884;9.126;2022-09-09T18:59:43;17.20;99.90
843;DHT22;407;48.884;9.126;2022-09-09T19:02:09;17.10;99.90
843;DHT22;407;48.884;9.126;2022-09-09T19:04:36;17.10;1.00
843;DHT22;407;48.884;9.126;2022-09-09T19:07:02;17.10;1.00
843;DHT22;407;48.884;9.126;2022-09-09T19:09:29;17.10;4.60
843;DHT22;407;48.884;9.126;2022-09-09T19:11:56;17.20;1.00
843;DHT22;407;48.884;9.126;2022-09-09T19:14:22;17.10;1.00
843;DHT22;407;48.884;9.126;2022-09-09T19:16:48;17.10;99.90
843;DHT22;407;48.884;9.126;2022-09-09T19:19:23;17.10;99.90
843;DHT22;407;48.884;9.126;2022-09-09T19:21:49;17.00;1.00
843;DHT22;407;48.884;9.126;2022-09-09T19:24:27;16.90;1.00
843;DHT22;407;48.884;9.126;2022-09-09T19:26:56;17.00;99.90
843;DHT22;407;48.884;9.126;2022-09-09T19:29:24;16.90;1.00
843;DHT22;407;48.884;9.126;2022-09-09T19:31:51;17.00;1.00
843;DHT22;407;48.884;9.126;2022-09-09T19:34:18;16.90;1.00
843;DHT22;407;48.884;9.126;2022-09-09T19:36:45;16.90;27.90
843;DHT22;407;48.884;9.126;2022-09-09T19:39:12;16.90;1.00
843;DHT22;407;48.884;9.126;2022-09-09T19:41:38;16.90;1.00
843;DHT22;407;48.884;9.126;2022-09-09T19:44:05;16.90;99.90
843;DHT22;407;48.884;9.126;2022-09-09T19:46:35;16.80;99.90